Time;durP1;ratioP1;P1;durP2;ratioP2;P2;SDS_P1;SDS_P2;PMS_P1;PMS_P2;Temp;Humidity;BMP_temperature;BMP_pressure;BME280_temperature;BME280_humidity;BME280_pressure;Samples;Min_cycle;Max_cycle;Signal;HPM_P1;HPM_P2
2022/01/14 00:02:15;;;;;;;;;46.75;31.75;;;;;;;;5038722;28;51170;-48
2022/01/14 00:05:00;;;;;;;;;39.50;33.75;;;;;;;;5038703;28;51162;-43
2022/01/14 00:07:44;;;;;;;;;39.00;33.00;;;;;;;;5038489;28;51632;-43
2022/01/14 00:10:32;;;;;;;;;38.00;31.50;;;;;;;;5039995;28;51146;-45
2022/01/14 00:16:38;;;;;;;;;42.50;33.00;;;;;;;;5017479;28;51137;-48
2022/01/14 00:19:25;;;;;;;;;44.25;35.00;;;;;;;;5015887;28;51253;-48
2022/01/14 00:22:16;;;;;;;;;38.50;34.50;;;;;;;;5016985;28;51061;-46
2022/01/14 00:32:16;;;;;;;;;43.75;34.50;;;;;;;;5039790;28;51363;-44
2022/01/14 00:34:35;;;;;;;;;45.25;35.75;;;;;;;;5033886;28;51636;-48
2022/01/14 00:37:29;;;;;;;;;45.25;36.75;;;;;;;;5039881;28;51123;-46
2022/01/14 00:40:39;;;;;;;;;41.50;34.50;;;;;;;;5040003;28;51244;-50
2022/01/14 00:43:24;;;;;;;;;38.50;32.00;;;;;;;;5038762;28;51120;-48
2022/01/14 00:46:08;;;;;;;;;39.75;33.75;;;;;;;;5039407;28;51048;-44
2022/01/14 00:49:02;;;;;;;;;39.50;33.00;;;;;;;;5038816;28;51712;-45
2022/01/14 00:51:47;;;;;;;;;39.25;31.75;;;;;;;;5039316;28;51163;-49
2022/01/14 00:54:33;;;;;;;;;40.75;31.75;;;;;;;;5031894;28;51589;-45
2022/01/14 00:59:13;;;;;;;;;45.75;35.75;;;;;;;;5018071;28;51193;-46
2022/01/14 01:00:38;;;;;;;;;41.50;34.50;;;;;;;;5017973;28;51066;-48
2022/01/14 01:03:23;;;;;;;;;48.00;35.75;;;;;;;;5019074;28;51118;-46
2022/01/14 01:06:08;;;;;;;;;44.25;34.00;;;;;;;;5003167;28;51223;-46
2022/01/14 01:08:56;;;;;;;;;45.00;34.50;;;;;;;;5019426;28;51012;-47
2022/01/14 01:11:51;;;;;;;;;41.75;33.50;;;;;;;;5019182;28;51067;-50
2022/01/14 01:14:46;;;;;;;;;38.50;30.75;;;;;;;;5018363;28;51608;-44
2022/01/14 01:17:34;;;;;;;;;42.75;33.25;;;;;;;;5018487;28;51117;-47
2022/01/14 01:20:24;;;;;;;;;34.50;30.50;;;;;;;;5012533;28;51242;-46
2022/01/14 01:23:10;;;;;;;;;32.25;31.00;;;;;;;;5018762;28;51121;-48
2022/01/14 01:26:03;;;;;;;;;36.50;32.25;;;;;;;;5018181;28;51235;-44
2022/01/14 01:29:00;;;;;;;;;37.75;31.50;;;;;;;;5018192;28;51220;-49
2022/01/14 01:31:46;;;;;;;;;36.75;30.50;;;;;;;;5018310;28;51078;-47
2022/01/14 01:34:57;;;;;;;;;36.50;29.25;;;;;;;;5017591;28;51397;-49
2022/01/14 01:38:02;;;;;;;;;36.50;31.25;;;;;;;;5019391;28;51456;-45
2022/01/14 01:40:48;;;;;;;;;33.75;29.75;;;;;;;;5018895;28;52314;-47
2022/01/14 01:43:34;;;;;;;;;35.25;31.00;;;;;;;;5018962;28;51104;-50
2022/01/14 01:46:21;;;;;;;;;35.25;31.50;;;;;;;;5019483;28;51054;-47
2022/01/14 01:49:28;;;;;;;;;32.25;30.00;;;;;;;;5013762;28;51168;-46
2022/01/14 01:52:13;;;;;;;;;31.50;28.75;;;;;;;;5018665;28;51182;-44
2022/01/14 01:55:00;;;;;;;;;37.75;28.25;;;;;;;;5028755;28;51202;-45
2022/01/14 01:58:15;;;;;;;;;44.25;33.75;;;;;;;;5039129;28;51049;-46
2022/01/14 02:01:01;;;;;;;;;42.50;33.75;;;;;;;;5038684;28;51112;-52
2022/01/14 02:03:46;;;;;;;;;35.00;31.00;;;;;;;;5038803;28;51462;-46
2022/01/14 02:06:52;;;;;;;;;42.50;34.00;;;;;;;;5042667;28;51091;-44
2022/01/14 02:09:41;;;;;;;;;39.25;31.50;;;;;;;;5042610;28;51088;-44
2022/01/14 02:12:52;;;;;;;;;33.75;30.50;;;;;;;;5042764;28;51168;-47
2022/01/14 02:22:14;;;;;;;;;33.25;30.25;;;;;;;;5042211;28;51177;-46
2022/01/14 02:25:07;;;;;;;;;38.50;32.50;;;;;;;;5042770;28;51133;-46
2022/01/14 02:27:52;;;;;;;;;37.75;32.00;;;;;;;;5042274;28;51494;-46
2022/01/14 02:30:40;;;;;;;;;42.00;33.50;;;;;;;;5042148;28;51155;-45
2022/01/14 02:33:24;;;;;;;;;36.50;30.00;;;;;;;;5042125;28;51660;-48
2022/01/14 02:36:11;;;;;;;;;40.25;34.00;;;;;;;;5041817;28;51113;-49
2022/01/14 02:39:07;;;;;;;;;39.25;30.25;;;;;;;;5041904;28;51305;-45
2022/01/14 02:41:52;;;;;;;;;36.25;33.25;;;;;;;;5042057;28;51015;-47
2022/01/14 02:44:44;;;;;;;;;29.50;27.75;;;;;;;;5041993;28;51742;-47
2022/01/14 02:47:28;;;;;;;;;37.00;32.00;;;;;;;;5041293;28;51402;-48
2022/01/14 02:50:21;;;;;;;;;35.00;32.25;;;;;;;;5041793;28;51232;-47
2022/01/14 02:56:37;;;;;;;;;39.50;32.75;;;;;;;;4999038;28;51140;-49
2022/01/14 02:59:21;;;;;;;;;37.50;31.75;;;;;;;;4999668;28;51775;-44
2022/01/14 03:02:28;;;;;;;;;38.50;31.50;;;;;;;;4999544;28;51174;-45
2022/01/14 03:05:13;;;;;;;;;41.00;33.25;;;;;;;;4999089;28;51052;-46
2022/01/14 03:08:01;;;;;;;;;35.75;29.75;;;;;;;;5041481;28;51040;-49
2022/01/14 03:10:58;;;;;;;;;35.00;31.50;;;;;;;;5026005;28;51656;-46
2022/01/14 03:13:46;;;;;;;;;44.50;33.50;;;;;;;;5040986;28;51610;-47
2022/01/14 03:16:40;;;;;;;;;39.75;33.00;;;;;;;;5040899;28;51195;-47
2022/01/14 03:19:26;;;;;;;;;38.75;32.00;;;;;;;;5037249;28;51255;-46
2022/01/14 03:22:27;;;;;;;;;44.50;33.25;;;;;;;;5041390;28;51228;-48
2022/01/14 03:28:47;;;;;;;;;40.75;31.50;;;;;;;;5040460;28;51132;-46
2022/01/14 03:31:31;;;;;;;;;46.50;33.50;;;;;;;;5041398;28;51120;-46
2022/01/14 03:34:17;;;;;;;;;38.00;33.25;;;;;;;;5040988;28;51145;-44
2022/01/14 03:37:02;;;;;;;;;39.25;33.50;;;;;;;;5019707;28;52871;-47
2022/01/14 03:39:56;;;;;;;;;32.75;29.00;;;;;;;;5020312;28;50994;-44
2022/01/14 03:42:50;;;;;;;;;40.50;32.75;;;;;;;;5039699;28;51125;-46
2022/01/14 03:45:35;;;;;;;;;37.75;32.50;;;;;;;;5021614;28;51071;-44
2022/01/14 03:48:20;;;;;;;;;40.00;33.50;;;;;;;;5020685;28;51368;-47
2022/01/14 03:51:05;;;;;;;;;42.25;33.50;;;;;;;;5019697;28;51691;-48
2022/01/14 03:54:01;;;;;;;;;39.00;30.25;;;;;;;;5020185;28;51148;-47
2022/01/14 03:57:07;;;;;;;;;38.00;32.25;;;;;;;;5020588;28;51046;-48
2022/01/14 03:59:52;;;;;;;;;45.25;34.75;;;;;;;;5020246;28;51196;-47
2022/01/14 04:02:48;;;;;;;;;38.25;32.25;;;;;;;;5019783;28;51574;-47
2022/01/14 04:05:34;;;;;;;;;40.75;32.75;;;;;;;;5019355;28;51141;-47
2022/01/14 04:08:20;;;;;;;;;40.25;33.00;;;;;;;;5019673;28;51417;-48
2022/01/14 04:11:05;;;;;;;;;47.25;34.25;;;;;;;;5019677;28;51470;-48
2022/01/14 04:13:55;;;;;;;;;41.75;34.00;;;;;;;;5019541;28;51213;-46
2022/01/14 04:16:40;;;;;;;;;41.50;31.50;;;;;;;;5019969;28;51125;-46
2022/01/14 04:19:37;;;;;;;;;37.00;30.00;;;;;;;;5019066;28;51227;-46
2022/01/14 04:22:23;;;;;;;;;31.75;30.25;;;;;;;;5020051;28;51178;-45
2022/01/14 04:25:19;;;;;;;;;41.00;33.00;;;;;;;;5032445;28;51207;-46
2022/01/14 04:28:07;;;;;;;;;48.25;39.25;;;;;;;;5039807;28;51041;-44
2022/01/14 04:30:56;;;;;;;;;58.50;45.50;;;;;;;;5039674;28;51086;-48
2022/01/14 04:33:50;;;;;;;;;57.00;45.75;;;;;;;;5039802;28;51204;-44
2022/01/14 04:36:46;;;;;;;;;62.75;46.50;;;;;;;;5039109;28;51765;-44
2022/01/14 04:39:54;;;;;;;;;57.75;43.25;;;;;;;;5039812;28;51113;-47
2022/01/14 04:42:44;;;;;;;;;60.75;45.50;;;;;;;;5039331;28;51129;-43
2022/01/14 04:45:43;;;;;;;;;64.75;48.50;;;;;;;;5039904;28;51137;-48
2022/01/14 04:48:29;;;;;;;;;63.00;49.50;;;;;;;;5039495;28;51101;-46
2022/01/14 04:51:15;;;;;;;;;59.25;47.50;;;;;;;;5006702;28;51222;-48
2022/01/14 04:54:02;;;;;;;;;58.75;46.25;;;;;;;;5019026;28;51514;-50
2022/01/14 04:57:16;;;;;;;;;69.50;50.75;;;;;;;;5041973;28;51156;-46
2022/01/14 05:00:07;;;;;;;;;63.75;49.25;;;;;;;;5038703;28;51134;-45
2022/01/14 05:02:53;;;;;;;;;63.75;50.75;;;;;;;;5036927;28;52681;-48
2022/01/14 05:05:41;;;;;;;;;57.25;47.75;;;;;;;;5037658;28;52351;-44
2022/01/14 05:08:36;;;;;;;;;64.25;51.25;;;;;;;;5038681;28;51651;-45
2022/01/14 05:11:25;;;;;;;;;73.25;56.25;;;;;;;;5036498;28;51215;-49
2022/01/14 05:14:19;;;;;;;;;66.25;51.75;;;;;;;;5038482;28;51339;-43
2022/01/14 05:17:05;;;;;;;;;67.00;52.50;;;;;;;;5038592;28;51131;-46
2022/01/14 05:19:51;;;;;;;;;71.25;54.25;;;;;;;;5038442;28;51246;-48
2022/01/14 05:22:51;;;;;;;;;63.00;50.00;;;;;;;;5038279;28;51295;-45
2022/01/14 05:25:36;;;;;;;;;62.50;50.25;;;;;;;;5038826;28;51187;-44
2022/01/14 05:28:22;;;;;;;;;69.00;49.75;;;;;;;;5038213;28;51177;-46
2022/01/14 05:31:13;;;;;;;;;66.50;51.25;;;;;;;;5038030;28;51118;-46
2022/01/14 05:33:58;;;;;;;;;61.50;49.00;;;;;;;;5039075;28;51073;-45
2022/01/14 05:37:05;;;;;;;;;62.75;50.25;;;;;;;;5038292;28;51156;-43
2022/01/14 05:40:13;;;;;;;;;69.00;51.50;;;;;;;;5040876;28;51575;-44
2022/01/14 05:43:00;;;;;;;;;72.25;56.25;;;;;;;;5042548;28;51160;-48
2022/01/14 05:45:45;;;;;;;;;71.25;55.25;;;;;;;;5042541;28;51974;-49
2022/01/14 05:48:30;;;;;;;;;69.50;56.00;;;;;;;;5042820;28;51095;-47
2022/01/14 05:51:16;;;;;;;;;72.50;58.50;;;;;;;;5043301;28;51171;-45
2022/01/14 05:54:03;;;;;;;;;71.50;55.25;;;;;;;;5042715;28;51439;-47
2022/01/14 05:56:48;;;;;;;;;70.75;57.50;;;;;;;;5041005;28;51047;-46
2022/01/14 05:59:33;;;;;;;;;72.75;57.25;;;;;;;;5042839;28;51143;-47
2022/01/14 06:02:18;;;;;;;;;72.00;57.50;;;;;;;;5042379;28;51197;-48
2022/01/14 06:05:04;;;;;;;;;70.00;55.75;;;;;;;;5042758;28;51329;-44
2022/01/14 06:07:52;;;;;;;;;68.25;51.50;;;;;;;;5037612;28;51050;-50
2022/01/14 06:10:36;;;;;;;;;68.00;52.25;;;;;;;;5041703;28;51080;-49
2022/01/14 06:13:21;;;;;;;;;63.25;51.00;;;;;;;;5041146;28;51180;-46
2022/01/14 06:16:08;;;;;;;;;68.50;52.00;;;;;;;;5043161;28;51096;-45
2022/01/14 06:19:14;;;;;;;;;67.75;52.00;;;;;;;;5042163;28;51598;-45
2022/01/14 06:22:00;;;;;;;;;65.25;51.75;;;;;;;;5040184;28;51123;-45
2022/01/14 06:24:49;;;;;;;;;68.00;52.25;;;;;;;;5042913;28;51013;-44
2022/01/14 06:27:34;;;;;;;;;71.25;56.00;;;;;;;;5042942;28;51041;-47
2022/01/14 06:30:26;;;;;;;;;71.00;53.25;;;;;;;;5022739;28;51432;-49
2022/01/14 06:33:11;;;;;;;;;73.00;58.25;;;;;;;;5022426;28;51179;-50
2022/01/14 06:36:00;;;;;;;;;76.00;62.75;;;;;;;;5022300;28;51700;-48
2022/01/14 06:38:56;;;;;;;;;75.50;61.25;;;;;;;;5018405;28;51193;-51
2022/01/14 06:41:41;;;;;;;;;78.50;66.00;;;;;;;;5022715;28;51070;-48
2022/01/14 06:44:30;;;;;;;;;96.50;72.50;;;;;;;;5020589;28;51216;-46
2022/01/14 06:47:34;;;;;;;;;76.00;64.25;;;;;;;;5021731;28;51425;-47
2022/01/14 06:50:20;;;;;;;;;81.50;67.25;;;;;;;;5021569;28;51102;-46
2022/01/14 06:53:08;;;;;;;;;72.75;59.00;;;;;;;;5021792;28;51035;-44
2022/01/14 06:55:56;;;;;;;;;77.25;68.75;;;;;;;;5021505;28;51173;-46
2022/01/14 06:58:59;;;;;;;;;77.75;68.00;;;;;;;;5021660;28;51151;-46
2022/01/14 07:01:46;;;;;;;;;81.00;72.25;;;;;;;;5020892;28;51144;-46
2022/01/14 07:04:33;;;;;;;;;86.50;76.25;;;;;;;;5021286;28;51195;-46
2022/01/14 07:07:26;;;;;;;;;80.25;65.50;;;;;;;;5019105;28;51110;-47
2022/01/14 07:10:21;;;;;;;;;73.75;65.75;;;;;;;;5021108;28;51457;-47
2022/01/14 07:13:34;;;;;;;;;70.75;59.00;;;;;;;;5020115;28;51146;-49
2022/01/14 07:16:18;;;;;;;;;88.75;76.00;;;;;;;;5021035;28;51045;-49
2022/01/14 07:19:27;;;;;;;;;90.75;81.75;;;;;;;;5021329;28;51292;-44
2022/01/14 07:22:23;;;;;;;;;90.50;79.75;;;;;;;;5019260;28;51129;-48
2022/01/14 07:25:08;;;;;;;;;81.00;73.25;;;;;;;;5020581;28;51160;-46
2022/01/14 07:27:53;;;;;;;;;82.25;72.75;;;;;;;;5020883;28;51478;-46
2022/01/14 07:30:39;;;;;;;;;76.75;66.50;;;;;;;;5017547;28;51144;-48
2022/01/14 07:33:28;;;;;;;;;82.25;72.50;;;;;;;;5020771;28;51017;-48
2022/01/14 07:36:23;;;;;;;;;83.50;76.25;;;;;;;;5020260;28;51196;-48
2022/01/14 07:39:08;;;;;;;;;81.00;69.75;;;;;;;;5020700;28;51211;-48
2022/01/14 07:41:53;;;;;;;;;83.25;73.25;;;;;;;;5020373;28;51036;-44
2022/01/14 07:44:39;;;;;;;;;84.25;72.25;;;;;;;;5017095;28;51124;-44
2022/01/14 07:47:32;;;;;;;;;86.75;76.75;;;;;;;;5019999;28;51125;-45
2022/01/14 07:50:23;;;;;;;;;85.00;80.50;;;;;;;;5020287;28;51134;-50
2022/01/14 07:53:24;;;;;;;;;89.00;77.50;;;;;;;;5020399;28;51276;-46
2022/01/14 07:56:20;;;;;;;;;70.75;56.25;;;;;;;;5019988;28;51141;-42
2022/01/14 07:59:27;;;;;;;;;77.75;67.75;;;;;;;;5019759;28;51162;-45
2022/01/14 08:02:13;;;;;;;;;73.50;66.00;;;;;;;;5019109;28;51144;-46
2022/01/14 08:05:03;;;;;;;;;73.75;65.75;;;;;;;;5019994;28;50972;-48
2022/01/14 08:07:53;;;;;;;;;70.75;62.50;;;;;;;;5019912;28;51179;-49
2022/01/14 08:10:43;;;;;;;;;60.00;48.50;;;;;;;;5020309;28;51076;-47
2022/01/14 08:13:29;;;;;;;;;62.75;50.25;;;;;;;;5019311;28;51476;-44
2022/01/14 08:16:34;;;;;;;;;56.25;45.00;;;;;;;;5019181;28;51526;-47
2022/01/14 08:19:21;;;;;;;;;55.50;44.50;;;;;;;;5019357;28;51056;-45
2022/01/14 08:22:07;;;;;;;;;57.50;45.50;;;;;;;;5017722;28;51109;-48
2022/01/14 08:24:58;;;;;;;;;48.00;38.50;;;;;;;;5020045;28;51183;-47
2022/01/14 08:27:44;;;;;;;;;42.75;33.00;;;;;;;;5019541;28;51101;-48
2022/01/14 08:30:41;;;;;;;;;36.75;31.50;;;;;;;;5019417;28;51476;-45
2022/01/14 08:33:37;;;;;;;;;38.50;31.75;;;;;;;;5019643;28;51305;-46
2022/01/14 08:36:29;;;;;;;;;46.75;34.75;;;;;;;;5019911;28;51203;-47
2022/01/14 08:39:24;;;;;;;;;43.00;33.25;;;;;;;;5019545;28;51760;-44
2022/01/14 08:42:10;;;;;;;;;43.25;32.25;;;;;;;;5019570;28;51068;-44
2022/01/14 08:45:23;;;;;;;;;35.50;31.50;;;;;;;;5019690;28;51505;-44
2022/01/14 08:48:10;;;;;;;;;41.75;32.00;;;;;;;;5019662;28;51179;-48
2022/01/14 08:50:58;;;;;;;;;43.25;34.75;;;;;;;;5019745;28;51045;-48
2022/01/14 08:54:20;;;;;;;;;47.75;36.50;;;;;;;;5019594;28;51217;-46
2022/01/14 08:57:06;;;;;;;;;36.50;31.25;;;;;;;;5019362;28;51049;-45
2022/01/14 08:59:55;;;;;;;;;46.00;34.25;;;;;;;;5019263;28;51096;-44
2022/01/14 09:02:42;;;;;;;;;44.00;36.50;;;;;;;;5019722;28;51105;-43
2022/01/14 09:05:32;;;;;;;;;39.50;33.00;;;;;;;;5019182;28;51136;-45
2022/01/14 09:08:16;;;;;;;;;44.75;37.25;;;;;;;;5019151;28;51009;-47
2022/01/14 09:11:02;;;;;;;;;45.75;37.25;;;;;;;;5019363;28;51758;-48
2022/01/14 09:13:47;;;;;;;;;45.75;35.25;;;;;;;;5018239;28;51113;-44
2022/01/14 09:16:37;;;;;;;;;33.00;30.75;;;;;;;;5019714;28;51240;-47
2022/01/14 09:19:41;;;;;;;;;41.75;34.25;;;;;;;;5019211;28;51115;-44
2022/01/14 09:22:31;;;;;;;;;38.50;33.25;;;;;;;;5019204;28;51132;-46
2022/01/14 09:25:18;;;;;;;;;40.25;32.75;;;;;;;;5014089;28;51142;-44
2022/01/14 09:28:26;;;;;;;;;39.75;32.25;;;;;;;;5019405;28;51045;-45
2022/01/14 09:31:13;;;;;;;;;40.50;34.00;;;;;;;;5019115;28;51044;-47
2022/01/14 09:34:04;;;;;;;;;43.75;36.50;;;;;;;;5019032;28;51109;-48
2022/01/14 09:36:50;;;;;;;;;43.75;35.75;;;;;;;;5019180;28;51176;-42
2022/01/14 09:39:43;;;;;;;;;43.00;34.50;;;;;;;;5018634;28;51361;-45
2022/01/14 09:42:47;;;;;;;;;38.50;30.50;;;;;;;;5019261;28;51093;-46
2022/01/14 09:45:34;;;;;;;;;31.00;27.50;;;;;;;;5019105;28;51400;-47
2022/01/14 09:48:22;;;;;;;;;32.50;27.00;;;;;;;;5019252;28;51183;-48
2022/01/14 09:51:06;;;;;;;;;38.25;29.75;;;;;;;;5018879;28;51357;-50
2022/01/14 09:53:59;;;;;;;;;28.25;25.00;;;;;;;;5019183;28;51179;-47
2022/01/14 09:56:45;;;;;;;;;35.25;29.25;;;;;;;;5018853;28;51178;-47
2022/01/14 09:59:39;;;;;;;;;31.75;28.00;;;;;;;;5019039;28;51156;-48
2022/01/14 10:02:37;;;;;;;;;30.75;28.00;;;;;;;;5018933;28;51080;-49
2022/01/14 10:05:37;;;;;;;;;38.00;28.50;;;;;;;;5018641;28;51102;-47
2022/01/14 10:08:36;;;;;;;;;28.00;26.00;;;;;;;;5018661;28;51093;-48
2022/01/14 10:11:30;;;;;;;;;26.75;25.00;;;;;;;;5018721;28;51416;-45
2022/01/14 10:14:17;;;;;;;;;27.00;24.00;;;;;;;;5018887;28;51160;-47
2022/01/14 10:17:05;;;;;;;;;27.50;23.25;;;;;;;;5018582;28;51292;-47
2022/01/14 10:19:50;;;;;;;;;25.75;22.75;;;;;;;;5018044;28;51402;-49
2022/01/14 10:22:42;;;;;;;;;29.25;24.00;;;;;;;;5018698;28;51064;-48
2022/01/14 10:25:27;;;;;;;;;26.75;24.00;;;;;;;;5018588;28;51237;-48
2022/01/14 10:28:36;;;;;;;;;28.25;21.75;;;;;;;;5022272;28;51152;-44
2022/01/14 10:31:39;;;;;;;;;35.25;27.00;;;;;;;;5021756;28;51158;-47
2022/01/14 12:46:52;;;;;;;;;34.75;30.25;;;;;;;;4312687;32;51797;-50
2022/01/14 12:50:00;;;;;;;;;33.75;29.00;;;;;;;;5071834;28;51077;-52
2022/01/14 12:53:05;;;;;;;;;26.00;23.00;;;;;;;;5076746;28;51119;-48
2022/01/14 12:56:02;;;;;;;;;25.75;24.50;;;;;;;;5076777;28;51062;-48
2022/01/14 12:59:17;;;;;;;;;28.00;26.50;;;;;;;;5076378;28;51129;-50
2022/01/14 13:02:07;;;;;;;;;30.75;26.00;;;;;;;;5075669;28;51183;-51
2022/01/14 13:05:15;;;;;;;;;36.25;30.00;;;;;;;;5076473;27;51104;-51
2022/01/14 13:08:12;;;;;;;;;33.75;27.50;;;;;;;;5076117;28;51060;-48
2022/01/14 13:11:17;;;;;;;;;36.00;31.25;;;;;;;;5076529;28;51684;-49
2022/01/14 13:14:04;;;;;;;;;36.25;29.00;;;;;;;;5076057;28;51154;-50
2022/01/14 13:16:52;;;;;;;;;32.00;25.25;;;;;;;;5076719;28;51108;-47
2022/01/14 13:19:39;;;;;;;;;37.25;31.50;;;;;;;;5076272;28;51101;-48
2022/01/14 13:22:28;;;;;;;;;34.50;28.50;;;;;;;;5076412;28;51062;-49
2022/01/14 13:25:33;;;;;;;;;34.00;28.00;;;;;;;;5074889;28;51647;-49
2022/01/14 13:28:22;;;;;;;;;32.75;29.00;;;;;;;;5064451;28;51582;-49
2022/01/14 13:31:11;;;;;;;;;28.00;25.50;;;;;;;;5070507;28;51072;-49
2022/01/14 13:33:55;;;;;;;;;35.50;29.75;;;;;;;;5075211;28;51337;-49
2022/01/14 13:37:07;;;;;;;;;31.25;28.75;;;;;;;;5075525;28;51097;-48
2022/01/14 13:40:00;;;;;;;;;32.50;27.25;;;;;;;;5075274;28;51183;-49
2022/01/14 13:42:48;;;;;;;;;33.25;28.50;;;;;;;;5075584;28;51033;-49
2022/01/14 13:45:53;;;;;;;;;34.00;30.50;;;;;;;;5067886;28;51572;-52
2022/01/14 13:48:42;;;;;;;;;30.25;28.50;;;;;;;;5060247;28;51144;-50
2022/01/14 13:51:31;;;;;;;;;32.50;27.00;;;;;;;;5059405;28;51243;-48
2022/01/14 13:54:25;;;;;;;;;25.75;23.75;;;;;;;;5059499;28;51278;-50
2022/01/14 13:57:18;;;;;;;;;35.75;27.00;;;;;;;;5059970;28;51527;-52
2022/01/14 14:00:10;;;;;;;;;33.75;30.50;;;;;;;;5059113;28;51502;-51
2022/01/14 14:02:55;;;;;;;;;32.75;27.75;;;;;;;;5060770;28;51610;-49
2022/01/14 14:05:48;;;;;;;;;31.25;28.00;;;;;;;;5061159;28;51058;-49
2022/01/14 14:17:34;;;;;;;;;36.50;30.25;;;;;;;;5057140;28;51120;-46
2022/01/14 14:20:30;;;;;;;;;27.75;24.00;;;;;;;;5049373;28;51220;-48
2022/01/14 14:23:27;;;;;;;;;32.75;28.00;;;;;;;;5053065;28;51120;-48
2022/01/14 14:26:29;;;;;;;;;32.50;28.25;;;;;;;;5060109;28;51536;-48
2022/01/14 14:29:28;;;;;;;;;28.00;21.50;;;;;;;;5059985;28;51148;-50
2022/01/14 14:32:31;;;;;;;;;33.75;29.50;;;;;;;;5060549;28;51101;-51
2022/01/14 14:35:24;;;;;;;;;31.00;29.25;;;;;;;;5048255;28;52288;-50
2022/01/14 14:38:18;;;;;;;;;33.25;29.75;;;;;;;;5054302;27;51522;-50
2022/01/14 14:41:24;;;;;;;;;31.25;27.75;;;;;;;;5058269;28;51272;-48
2022/01/14 14:44:18;;;;;;;;;34.25;29.50;;;;;;;;5058968;28;51171;-53
2022/01/14 14:47:04;;;;;;;;;24.25;23.25;;;;;;;;5045181;28;51048;-49
2022/01/14 14:49:50;;;;;;;;;31.00;27.50;;;;;;;;5045809;28;51176;-48
2022/01/14 14:52:38;;;;;;;;;32.75;28.00;;;;;;;;5044019;28;51171;-49
2022/01/14 14:55:22;;;;;;;;;32.00;29.00;;;;;;;;5040267;28;51590;-50
2022/01/14 14:58:29;;;;;;;;;31.25;28.75;;;;;;;;5050388;28;51093;-48
2022/01/14 15:01:16;;;;;;;;;37.00;30.25;;;;;;;;5048956;28;51108;-48
2022/01/14 15:04:02;;;;;;;;;36.50;27.00;;;;;;;;5039889;28;51764;-47
2022/01/14 15:06:52;;;;;;;;;32.75;25.00;;;;;;;;5039581;28;51120;-49
2022/01/14 15:09:43;;;;;;;;;33.75;28.00;;;;;;;;5040073;28;51687;-47
2022/01/14 15:12:27;;;;;;;;;28.00;22.50;;;;;;;;5039781;28;51057;-50
2022/01/14 15:15:20;;;;;;;;;31.00;29.75;;;;;;;;5040459;28;51078;-51
2022/01/14 15:18:11;;;;;;;;;32.00;27.75;;;;;;;;5052368;28;51007;-47
2022/01/14 15:20:58;;;;;;;;;37.75;29.50;;;;;;;;5048949;28;50983;-48
2022/01/14 15:23:47;;;;;;;;;33.25;27.75;;;;;;;;5042166;28;51151;-50
2022/01/14 15:26:42;;;;;;;;;30.00;28.75;;;;;;;;5040111;28;51216;-47
2022/01/14 15:29:30;;;;;;;;;31.25;27.25;;;;;;;;5057273;28;51537;-46
2022/01/14 15:32:25;;;;;;;;;34.00;27.25;;;;;;;;5059634;28;51195;-52
2022/01/14 15:35:12;;;;;;;;;43.25;32.75;;;;;;;;5059514;28;51598;-49
2022/01/14 15:38:03;;;;;;;;;43.50;33.00;;;;;;;;5059417;28;51092;-49
2022/01/14 15:40:49;;;;;;;;;41.75;34.75;;;;;;;;5058030;28;51199;-52
2022/01/14 15:43:40;;;;;;;;;48.25;37.75;;;;;;;;5059640;28;51080;-50
2022/01/14 15:46:36;;;;;;;;;46.00;35.75;;;;;;;;5059901;28;51633;-50
2022/01/14 15:49:22;;;;;;;;;47.50;36.75;;;;;;;;5059099;28;51048;-47
2022/01/14 15:52:10;;;;;;;;;40.75;32.50;;;;;;;;5059363;28;51267;-48
2022/01/14 15:54:58;;;;;;;;;38.50;33.25;;;;;;;;5059217;28;51481;-51
2022/01/14 15:57:45;;;;;;;;;40.00;31.75;;;;;;;;5059589;28;51240;-54
2022/01/14 16:00:30;;;;;;;;;44.00;33.50;;;;;;;;5039113;28;51179;-50
2022/01/14 16:03:14;;;;;;;;;43.50;34.50;;;;;;;;5039293;28;51148;-48
2022/01/14 16:06:10;;;;;;;;;39.75;33.75;;;;;;;;5039514;28;51140;-51
2022/01/14 16:09:16;;;;;;;;;30.75;29.50;;;;;;;;5038663;28;51427;-52
2022/01/14 16:12:29;;;;;;;;;42.25;34.00;;;;;;;;5058033;28;51642;-52
2022/01/14 16:15:45;;;;;;;;;33.75;31.00;;;;;;;;5049106;28;51086;-51
2022/01/14 16:18:36;;;;;;;;;41.75;32.50;;;;;;;;5059598;28;51085;-53
2022/01/14 16:21:31;;;;;;;;;43.75;32.00;;;;;;;;5059091;28;51426;-51
2022/01/14 16:24:28;;;;;;;;;41.00;31.00;;;;;;;;5059239;28;51167;-51
2022/01/14 16:27:23;;;;;;;;;37.75;32.00;;;;;;;;5040499;28;51646;-52
2022/01/14 16:30:15;;;;;;;;;45.25;33.75;;;;;;;;5049702;28;51111;-53
2022/01/14 16:33:00;;;;;;;;;41.50;32.50;;;;;;;;5036282;28;51242;-54
2022/01/14 16:35:46;;;;;;;;;31.50;27.75;;;;;;;;5037889;28;51176;-51
2022/01/14 16:38:37;;;;;;;;;31.00;27.50;;;;;;;;5037735;28;51625;-53
2022/01/14 16:42:02;;;;;;;;;37.25;30.50;;;;;;;;5054052;28;51145;-50
2022/01/14 16:44:58;;;;;;;;;40.50;31.50;;;;;;;;5058008;28;51156;-52
2022/01/14 16:47:47;;;;;;;;;41.00;33.75;;;;;;;;5058492;28;51281;-50
2022/01/14 16:50:33;;;;;;;;;31.50;27.25;;;;;;;;5059094;28;51094;-50
2022/01/14 16:53:22;;;;;;;;;38.75;31.75;;;;;;;;5058325;28;51620;-52
2022/01/14 16:56:09;;;;;;;;;38.50;30.25;;;;;;;;5057402;28;51219;-53
2022/01/14 16:58:55;;;;;;;;;33.50;29.75;;;;;;;;5058349;28;51187;-51
2022/01/14 17:01:44;;;;;;;;;26.00;26.00;;;;;;;;5058205;28;51404;-52
2022/01/14 17:04:29;;;;;;;;;31.50;27.00;;;;;;;;5056016;28;51675;-53
2022/01/14 17:07:19;;;;;;;;;32.75;28.00;;;;;;;;5038597;28;51042;-54
2022/01/14 17:10:03;;;;;;;;;24.00;20.50;;;;;;;;5038937;28;51096;-53
2022/01/14 17:13:15;;;;;;;;;33.25;27.75;;;;;;;;5038557;28;51172;-55
2022/01/14 17:16:01;;;;;;;;;35.50;32.00;;;;;;;;5057662;28;51131;-53
2022/01/14 17:18:46;;;;;;;;;44.00;33.75;;;;;;;;5058776;28;51534;-54
2022/01/14 17:21:30;;;;;;;;;35.50;31.25;;;;;;;;5058204;28;51113;-53
2022/01/14 17:24:14;;;;;;;;;39.50;31.75;;;;;;;;5042796;28;51064;-52
2022/01/14 17:26:59;;;;;;;;;29.00;27.75;;;;;;;;5041877;28;51357;-53
2022/01/14 17:29:43;;;;;;;;;35.75;28.75;;;;;;;;5042382;28;51569;-53
2022/01/14 17:32:28;;;;;;;;;39.25;30.75;;;;;;;;5041875;28;51134;-55
2022/01/14 17:35:12;;;;;;;;;35.50;30.75;;;;;;;;5062289;28;50932;-50
2022/01/14 17:37:59;;;;;;;;;28.50;24.50;;;;;;;;5061568;28;51462;-53
2022/01/14 17:40:43;;;;;;;;;39.50;31.50;;;;;;;;5050260;28;51126;-55
2022/01/14 17:43:31;;;;;;;;;37.00;29.75;;;;;;;;5042092;28;51125;-53
2022/01/14 17:46:17;;;;;;;;;36.00;30.25;;;;;;;;5041519;28;51124;-52
2022/01/14 17:49:01;;;;;;;;;37.75;32.75;;;;;;;;5039737;28;51300;-54
2022/01/14 17:51:46;;;;;;;;;40.75;31.25;;;;;;;;5039914;28;51239;-53
2022/01/14 17:54:30;;;;;;;;;32.75;28.50;;;;;;;;5039756;28;51583;-54
2022/01/14 17:57:14;;;;;;;;;35.75;30.50;;;;;;;;5039792;28;51169;-53
2022/01/14 17:59:59;;;;;;;;;33.50;30.50;;;;;;;;5039445;28;51224;-49
2022/01/14 18:02:44;;;;;;;;;37.75;30.00;;;;;;;;5043336;28;51217;-53
2022/01/14 18:05:28;;;;;;;;;39.00;31.00;;;;;;;;5047065;28;51175;-53
2022/01/14 18:08:13;;;;;;;;;36.25;29.75;;;;;;;;5047741;28;51707;-54
2022/01/14 18:10:57;;;;;;;;;28.00;27.75;;;;;;;;5039598;28;51582;-56
2022/01/14 18:13:55;;;;;;;;;32.50;28.75;;;;;;;;5039342;28;51133;-54
2022/01/14 18:16:40;;;;;;;;;36.00;30.25;;;;;;;;5040225;28;51113;-54
2022/01/14 18:19:24;;;;;;;;;33.50;27.75;;;;;;;;5044876;28;51182;-55
2022/01/14 18:22:09;;;;;;;;;32.50;26.75;;;;;;;;5039347;28;51247;-54
2022/01/14 18:24:53;;;;;;;;;27.25;25.50;;;;;;;;5050108;28;51080;-49
2022/01/14 18:27:38;;;;;;;;;32.50;29.75;;;;;;;;5050842;28;51520;-49
2022/01/14 18:30:22;;;;;;;;;36.25;31.25;;;;;;;;5038814;28;51207;-52
2022/01/14 18:33:07;;;;;;;;;37.75;29.00;;;;;;;;5051708;28;51093;-53
2022/01/14 18:35:51;;;;;;;;;35.50;31.75;;;;;;;;5059661;28;51184;-54
2022/01/14 18:38:35;;;;;;;;;38.50;31.75;;;;;;;;5059133;28;51066;-52
2022/01/14 18:41:20;;;;;;;;;39.25;32.50;;;;;;;;5060722;28;51204;-53
2022/01/14 18:44:10;;;;;;;;;33.50;29.00;;;;;;;;5059829;28;51575;-52
2022/01/14 18:46:55;;;;;;;;;44.00;33.25;;;;;;;;5058542;28;51156;-50
2022/01/14 18:49:39;;;;;;;;;35.50;30.25;;;;;;;;5043507;28;51276;-51
2022/01/14 18:52:23;;;;;;;;;36.25;29.25;;;;;;;;5051476;28;51322;-53
2022/01/14 18:55:08;;;;;;;;;41.50;32.00;;;;;;;;5058085;28;51491;-55
2022/01/14 18:57:52;;;;;;;;;36.00;30.00;;;;;;;;5058283;28;51256;-53
2022/01/14 19:00:37;;;;;;;;;33.00;29.75;;;;;;;;5059190;28;51394;-54
2022/01/14 19:03:21;;;;;;;;;34.75;29.50;;;;;;;;5038764;28;51126;-52
2022/01/14 19:06:06;;;;;;;;;37.50;31.25;;;;;;;;5044050;28;51165;-54
2022/01/14 19:08:50;;;;;;;;;34.25;29.25;;;;;;;;5059415;28;51709;-54
2022/01/14 19:11:34;;;;;;;;;37.75;31.00;;;;;;;;5054679;28;51875;-53
2022/01/14 19:14:18;;;;;;;;;38.75;33.00;;;;;;;;5057475;28;51048;-52
2022/01/14 19:17:03;;;;;;;;;36.50;30.25;;;;;;;;5053065;28;51192;-54
2022/01/14 19:19:47;;;;;;;;;35.75;30.00;;;;;;;;5038673;28;51198;-55